Skip to main content

P. Delgada (Aeródromo)

ID 1200512 · 37.7441, -25.6953 map

Latest reading · 2026-05-09 19:00 (Europe/Lisbon)

Temperature
15.3 °C
Humidity
76 %
Pressure
1,015.5 hPa
Precipitation
0.0 mm
Radiation
2,807 W/m²
Wind speed
23.8 km/h
Wind direction
N · North

24-hour history

Time (Europe/Lisbon) Temp Humidity Pressure Rain Wind Dir
2026-05-09 19:00 15.3 °C 76 % 1,015.5 0.0 mm 23.8 km/h N
2026-05-09 18:00 15.6 °C 77 % 1,015.2 0.6 mm 27.7 km/h N
2026-05-09 17:00 16.7 °C 68 % 1,015.0 0.0 mm 32.4 km/h N
2026-05-09 16:00 15.0 °C 78 % 1,015.0 0.5 mm 26.3 km/h NW
2026-05-09 15:00 13.8 °C 77 % 1,015.6 1.2 mm 23.4 km/h NW
2026-05-09 14:00 13.4 °C 74 % 1,015.9 0.1 mm 32.8 km/h NW
2026-05-09 13:00 14.2 °C 68 % 1,016.1 0.0 mm 29.9 km/h NW
2026-05-09 12:00 14.5 °C 57 % 1,016.2 0.0 mm 36.4 km/h NW
2026-05-09 11:00 13.6 °C 63 % 1,016.3 0.0 mm 33.1 km/h NW
2026-05-09 10:00 12.6 °C 66 % 1,016.2 0.0 mm 25.2 km/h N
2026-05-09 09:00 11.6 °C 73 % 1,016.0 0.0 mm 19.4 km/h N
2026-05-09 08:00 11.2 °C 77 % 1,015.4 0.0 mm 22.7 km/h N
2026-05-09 07:00 10.8 °C 82 % 1,015.5 0.4 mm 17.3 km/h NW
2026-05-09 06:00 11.3 °C 80 % 1,015.6 1.5 mm 29.2 km/h N
2026-05-09 05:00 12.1 °C 73 % 1,015.6 0.0 mm 28.8 km/h N
2026-05-09 04:00 12.3 °C 71 % 1,015.8 0.0 mm 23.4 km/h NW
2026-05-09 03:00 12.4 °C 76 % 1,016.0 0.0 mm 29.9 km/h N
2026-05-09 02:00 12.7 °C 79 % 1,016.2 0.6 mm 32.8 km/h N
2026-05-09 01:00 13.3 °C 79 % 1,016.2 0.3 mm 26.3 km/h N
2026-05-09 00:00 13.6 °C 78 % 1,016.1 0.2 mm 30.6 km/h N
2026-05-08 23:00 13.9 °C 76 % 1,015.4 0.0 mm 29.9 km/h N
2026-05-08 22:00 14.6 °C 74 % 1,014.7 0.1 mm 37.1 km/h N
2026-05-08 21:00 15.7 °C 67 % 1,014.2 0.0 mm 29.2 km/h NW
2026-05-08 20:00 16.4 °C 65 % 1,014.1 0.0 mm 28.1 km/h NW